sensor_id;sensor_type;location;lat;lon;timestamp;P1;durP1;ratioP1;P2;durP2;ratioP2
14235;SDS011;7202;50.718;7.072;2023-09-30T00:00:43;4.32;;;2.88;;
14235;SDS011;7202;50.718;7.072;2023-09-30T00:03:12;8.20;;;3.53;;
14235;SDS011;7202;50.718;7.072;2023-09-30T00:05:42;7.25;;;3.50;;
14235;SDS011;7202;50.718;7.072;2023-09-30T00:08:10;8.30;;;3.60;;
14235;SDS011;7202;50.718;7.072;2023-09-30T00:10:39;6.68;;;3.22;;
14235;SDS011;7202;50.718;7.072;2023-09-30T00:13:07;7.03;;;3.50;;
14235;SDS011;7202;50.718;7.072;2023-09-30T00:15:36;7.28;;;2.97;;
14235;SDS011;7202;50.718;7.072;2023-09-30T00:18:05;12.25;;;3.40;;
14235;SDS011;7202;50.718;7.072;2023-09-30T00:20:33;8.90;;;3.50;;
14235;SDS011;7202;50.718;7.072;2023-09-30T00:23:04;8.07;;;3.50;;
14235;SDS011;7202;50.718;7.072;2023-09-30T00:25:33;7.82;;;3.72;;
14235;SDS011;7202;50.718;7.072;2023-09-30T00:28:01;9.88;;;3.45;;
14235;SDS011;7202;50.718;7.072;2023-09-30T00:30:30;8.77;;;4.03;;
14235;SDS011;7202;50.718;7.072;2023-09-30T00:32:59;6.10;;;3.63;;
14235;SDS011;7202;50.718;7.072;2023-09-30T00:35:28;10.07;;;3.53;;
14235;SDS011;7202;50.718;7.072;2023-09-30T00:37:59;8.35;;;3.25;;
14235;SDS011;7202;50.718;7.072;2023-09-30T00:40:29;13.43;;;3.45;;
14235;SDS011;7202;50.718;7.072;2023-09-30T00:42:57;8.80;;;3.53;;
14235;SDS011;7202;50.718;7.072;2023-09-30T00:45:27;6.30;;;3.65;;
14235;SDS011;7202;50.718;7.072;2023-09-30T00:47:56;6.97;;;3.72;;
14235;SDS011;7202;50.718;7.072;2023-09-30T00:50:25;7.38;;;3.20;;
14235;SDS011;7202;50.718;7.072;2023-09-30T00:52:55;6.25;;;3.67;;
14235;SDS011;7202;50.718;7.072;2023-09-30T00:55:24;6.53;;;3.60;;
14235;SDS011;7202;50.718;7.072;2023-09-30T00:57:54;6.10;;;3.22;;
14235;SDS011;7202;50.718;7.072;2023-09-30T01:00:23;8.63;;;3.58;;
14235;SDS011;7202;50.718;7.072;2023-09-30T01:02:55;6.25;;;3.38;;
14235;SDS011;7202;50.718;7.072;2023-09-30T01:05:26;5.50;;;3.30;;
14235;SDS011;7202;50.718;7.072;2023-09-30T01:07:55;5.57;;;3.40;;
14235;SDS011;7202;50.718;7.072;2023-09-30T01:10:23;8.63;;;3.28;;
14235;SDS011;7202;50.718;7.072;2023-09-30T01:12:53;7.43;;;3.67;;
14235;SDS011;7202;50.718;7.072;2023-09-30T01:15:23;5.05;;;3.10;;
14235;SDS011;7202;50.718;7.072;2023-09-30T01:17:52;7.45;;;3.55;;
14235;SDS011;7202;50.718;7.072;2023-09-30T01:20:20;6.90;;;3.53;;
14235;SDS011;7202;50.718;7.072;2023-09-30T01:22:51;7.25;;;4.28;;
14235;SDS011;7202;50.718;7.072;2023-09-30T01:25:21;6.65;;;4.00;;
14235;SDS011;7202;50.718;7.072;2023-09-30T01:27:50;5.97;;;3.80;;
14235;SDS011;7202;50.718;7.072;2023-09-30T01:30:19;5.82;;;3.80;;
14235;SDS011;7202;50.718;7.072;2023-09-30T01:32:49;6.10;;;3.47;;
14235;SDS011;7202;50.718;7.072;2023-09-30T01:35:18;9.52;;;3.85;;
14235;SDS011;7202;50.718;7.072;2023-09-30T01:37:46;6.65;;;4.05;;
14235;SDS011;7202;50.718;7.072;2023-09-30T01:40:15;7.05;;;4.00;;
14235;SDS011;7202;50.718;7.072;2023-09-30T01:42:45;10.23;;;4.03;;
14235;SDS011;7202;50.718;7.072;2023-09-30T01:45:14;6.38;;;4.00;;
14235;SDS011;7202;50.718;7.072;2023-09-30T01:47:42;10.48;;;4.03;;
14235;SDS011;7202;50.718;7.072;2023-09-30T01:50:11;8.25;;;3.58;;
14235;SDS011;7202;50.718;7.072;2023-09-30T01:52:46;5.32;;;3.75;;
14235;SDS011;7202;50.718;7.072;2023-09-30T01:55:16;6.43;;;3.92;;
14235;SDS011;7202;50.718;7.072;2023-09-30T01:57:44;8.25;;;3.40;;
14235;SDS011;7202;50.718;7.072;2023-09-30T02:00:13;10.07;;;4.00;;
14235;SDS011;7202;50.718;7.072;2023-09-30T02:02:42;6.20;;;3.55;;
14235;SDS011;7202;50.718;7.072;2023-09-30T02:05:11;8.77;;;4.28;;
14235;SDS011;7202;50.718;7.072;2023-09-30T02:07:40;10.70;;;4.05;;
14235;SDS011;7202;50.718;7.072;2023-09-30T02:10:09;5.18;;;3.78;;
14235;SDS011;7202;50.718;7.072;2023-09-30T02:12:39;10.30;;;3.67;;
14235;SDS011;7202;50.718;7.072;2023-09-30T02:15:08;7.25;;;4.15;;
14235;SDS011;7202;50.718;7.072;2023-09-30T02:17:38;8.02;;;4.00;;
14235;SDS011;7202;50.718;7.072;2023-09-30T02:20:07;6.47;;;4.18;;
14235;SDS011;7202;50.718;7.072;2023-09-30T02:22:40;9.93;;;3.67;;
14235;SDS011;7202;50.718;7.072;2023-09-30T02:25:10;6.13;;;4.05;;
14235;SDS011;7202;50.718;7.072;2023-09-30T02:27:41;10.38;;;4.40;;
14235;SDS011;7202;50.718;7.072;2023-09-30T02:30:10;7.72;;;3.88;;
14235;SDS011;7202;50.718;7.072;2023-09-30T02:32:41;5.38;;;3.75;;
14235;SDS011;7202;50.718;7.072;2023-09-30T02:35:10;9.82;;;4.10;;
14235;SDS011;7202;50.718;7.072;2023-09-30T02:37:38;6.43;;;4.47;;
14235;SDS011;7202;50.718;7.072;2023-09-30T02:40:07;7.75;;;3.75;;
14235;SDS011;7202;50.718;7.072;2023-09-30T02:42:37;9.13;;;3.78;;
14235;SDS011;7202;50.718;7.072;2023-09-30T02:45:09;9.48;;;3.90;;
14235;SDS011;7202;50.718;7.072;2023-09-30T02:47:38;7.85;;;4.25;;
14235;SDS011;7202;50.718;7.072;2023-09-30T02:50:08;10.98;;;3.72;;
14235;SDS011;7202;50.718;7.072;2023-09-30T02:52:39;8.73;;;4.13;;
14235;SDS011;7202;50.718;7.072;2023-09-30T02:55:08;6.95;;;4.03;;
14235;SDS011;7202;50.718;7.072;2023-09-30T02:57:38;6.15;;;3.80;;
14235;SDS011;7202;50.718;7.072;2023-09-30T03:00:09;8.07;;;4.18;;
14235;SDS011;7202;50.718;7.072;2023-09-30T03:02:51;9.15;;;4.30;;
14235;SDS011;7202;50.718;7.072;2023-09-30T03:05:20;7.40;;;4.38;;
14235;SDS011;7202;50.718;7.072;2023-09-30T03:07:50;6.65;;;3.80;;
14235;SDS011;7202;50.718;7.072;2023-09-30T03:10:18;10.07;;;4.00;;
14235;SDS011;7202;50.718;7.072;2023-09-30T03:12:50;8.48;;;4.35;;
14235;SDS011;7202;50.718;7.072;2023-09-30T03:15:20;5.88;;;3.35;;
14235;SDS011;7202;50.718;7.072;2023-09-30T03:17:50;8.60;;;4.35;;
14235;SDS011;7202;50.718;7.072;2023-09-30T03:20:20;5.40;;;3.65;;
14235;SDS011;7202;50.718;7.072;2023-09-30T03:22:48;7.05;;;3.53;;
14235;SDS011;7202;50.718;7.072;2023-09-30T03:25:18;7.57;;;3.50;;
14235;SDS011;7202;50.718;7.072;2023-09-30T03:27:47;6.07;;;3.90;;
14235;SDS011;7202;50.718;7.072;2023-09-30T03:30:17;8.70;;;4.10;;
14235;SDS011;7202;50.718;7.072;2023-09-30T03:32:49;10.95;;;4.40;;
14235;SDS011;7202;50.718;7.072;2023-09-30T03:35:17;9.38;;;3.75;;
14235;SDS011;7202;50.718;7.072;2023-09-30T03:37:46;7.32;;;4.35;;
14235;SDS011;7202;50.718;7.072;2023-09-30T03:40:15;6.30;;;4.47;;
14235;SDS011;7202;50.718;7.072;2023-09-30T03:42:47;6.93;;;4.50;;
14235;SDS011;7202;50.718;7.072;2023-09-30T03:45:17;9.35;;;4.60;;
14235;SDS011;7202;50.718;7.072;2023-09-30T03:47:46;8.27;;;4.32;;
14235;SDS011;7202;50.718;7.072;2023-09-30T03:50:18;6.82;;;3.85;;
14235;SDS011;7202;50.718;7.072;2023-09-30T03:52:46;10.65;;;4.45;;
14235;SDS011;7202;50.718;7.072;2023-09-30T03:55:16;9.98;;;4.15;;
14235;SDS011;7202;50.718;7.072;2023-09-30T03:57:48;8.55;;;4.60;;
14235;SDS011;7202;50.718;7.072;2023-09-30T04:00:18;8.93;;;5.35;;
14235;SDS011;7202;50.718;7.072;2023-09-30T04:02:50;7.68;;;4.28;;
14235;SDS011;7202;50.718;7.072;2023-09-30T04:05:21;7.88;;;4.40;;
14235;SDS011;7202;50.718;7.072;2023-09-30T04:07:53;10.20;;;4.22;;
14235;SDS011;7202;50.718;7.072;2023-09-30T04:10:22;9.98;;;4.18;;
14235;SDS011;7202;50.718;7.072;2023-09-30T04:12:51;9.07;;;3.67;;
14235;SDS011;7202;50.718;7.072;2023-09-30T04:15:20;6.82;;;3.55;;
14235;SDS011;7202;50.718;7.072;2023-09-30T04:17:50;6.43;;;3.47;;
14235;SDS011;7202;50.718;7.072;2023-09-30T04:20:19;7.40;;;4.10;;
14235;SDS011;7202;50.718;7.072;2023-09-30T04:22:50;9.18;;;3.67;;
14235;SDS011;7202;50.718;7.072;2023-09-30T04:25:24;8.35;;;3.97;;
14235;SDS011;7202;50.718;7.072;2023-09-30T04:27:53;11.18;;;3.70;;
14235;SDS011;7202;50.718;7.072;2023-09-30T04:30:21;8.77;;;3.88;;
14235;SDS011;7202;50.718;7.072;2023-09-30T04:32:51;7.45;;;3.90;;
14235;SDS011;7202;50.718;7.072;2023-09-30T04:35:21;8.43;;;3.67;;
14235;SDS011;7202;50.718;7.072;2023-09-30T04:37:49;8.13;;;3.38;;
14235;SDS011;7202;50.718;7.072;2023-09-30T04:40:18;4.35;;;3.30;;
14235;SDS011;7202;50.718;7.072;2023-09-30T04:42:47;5.75;;;3.10;;
14235;SDS011;7202;50.718;7.072;2023-09-30T04:45:16;5.95;;;3.60;;
14235;SDS011;7202;50.718;7.072;2023-09-30T04:47:47;13.68;;;4.00;;
14235;SDS011;7202;50.718;7.072;2023-09-30T04:50:18;7.85;;;3.42;;
14235;SDS011;7202;50.718;7.072;2023-09-30T04:52:49;7.32;;;3.60;;
14235;SDS011;7202;50.718;7.072;2023-09-30T04:55:18;7.45;;;3.42;;
14235;SDS011;7202;50.718;7.072;2023-09-30T04:57:47;5.60;;;3.17;;
14235;SDS011;7202;50.718;7.072;2023-09-30T05:00:19;9.35;;;3.47;;
14235;SDS011;7202;50.718;7.072;2023-09-30T05:02:52;6.68;;;3.55;;
14235;SDS011;7202;50.718;7.072;2023-09-30T05:05:24;11.30;;;3.50;;
14235;SDS011;7202;50.718;7.072;2023-09-30T05:07:53;8.95;;;3.67;;
14235;SDS011;7202;50.718;7.072;2023-09-30T05:10:21;5.45;;;3.40;;
14235;SDS011;7202;50.718;7.072;2023-09-30T05:12:51;7.57;;;3.17;;
14235;SDS011;7202;50.718;7.072;2023-09-30T05:15:21;6.78;;;3.08;;
14235;SDS011;7202;50.718;7.072;2023-09-30T05:17:50;7.00;;;3.25;;
14235;SDS011;7202;50.718;7.072;2023-09-30T05:20:18;5.18;;;2.78;;
14235;SDS011;7202;50.718;7.072;2023-09-30T05:22:49;6.82;;;3.42;;
14235;SDS011;7202;50.718;7.072;2023-09-30T05:25:17;6.03;;;3.63;;
14235;SDS011;7202;50.718;7.072;2023-09-30T05:27:46;11.15;;;3.38;;
14235;SDS011;7202;50.718;7.072;2023-09-30T05:30:16;8.55;;;3.40;;
14235;SDS011;7202;50.718;7.072;2023-09-30T05:32:46;7.07;;;3.00;;
14235;SDS011;7202;50.718;7.072;2023-09-30T05:35:15;8.07;;;3.17;;
14235;SDS011;7202;50.718;7.072;2023-09-30T05:37:45;5.70;;;3.20;;
14235;SDS011;7202;50.718;7.072;2023-09-30T05:40:15;5.43;;;3.00;;
14235;SDS011;7202;50.718;7.072;2023-09-30T05:42:50;6.00;;;2.97;;
14235;SDS011;7202;50.718;7.072;2023-09-30T05:45:21;5.88;;;3.00;;
14235;SDS011;7202;50.718;7.072;2023-09-30T05:47:51;5.45;;;2.83;;
14235;SDS011;7202;50.718;7.072;2023-09-30T05:50:21;6.47;;;3.13;;
14235;SDS011;7202;50.718;7.072;2023-09-30T05:52:53;10.98;;;3.35;;
14235;SDS011;7202;50.718;7.072;2023-09-30T05:55:24;7.35;;;3.10;;
14235;SDS011;7202;50.718;7.072;2023-09-30T05:57:53;4.05;;;2.70;;
14235;SDS011;7202;50.718;7.072;2023-09-30T06:00:23;5.22;;;2.97;;
14235;SDS011;7202;50.718;7.072;2023-09-30T06:02:56;6.65;;;3.33;;
14235;SDS011;7202;50.718;7.072;2023-09-30T06:05:24;4.85;;;3.10;;
14235;SDS011;7202;50.718;7.072;2023-09-30T06:07:56;5.53;;;3.30;;
14235;SDS011;7202;50.718;7.072;2023-09-30T06:10:27;7.32;;;3.72;;
14235;SDS011;7202;50.718;7.072;2023-09-30T06:12:56;6.70;;;3.83;;
14235;SDS011;7202;50.718;7.072;2023-09-30T06:15:25;6.05;;;4.05;;
14235;SDS011;7202;50.718;7.072;2023-09-30T06:17:54;6.22;;;3.67;;
14235;SDS011;7202;50.718;7.072;2023-09-30T06:20:24;5.88;;;3.92;;
14235;SDS011;7202;50.718;7.072;2023-09-30T06:22:55;6.07;;;3.45;;
14235;SDS011;7202;50.718;7.072;2023-09-30T06:25:23;5.55;;;3.75;;
14235;SDS011;7202;50.718;7.072;2023-09-30T06:27:54;4.65;;;3.63;;
14235;SDS011;7202;50.718;7.072;2023-09-30T06:30:23;5.50;;;3.67;;
14235;SDS011;7202;50.718;7.072;2023-09-30T06:32:57;5.68;;;3.50;;
14235;SDS011;7202;50.718;7.072;2023-09-30T06:35:28;4.80;;;3.65;;
14235;SDS011;7202;50.718;7.072;2023-09-30T06:38:01;4.60;;;3.88;;
14235;SDS011;7202;50.718;7.072;2023-09-30T06:40:30;7.47;;;4.30;;
14235;SDS011;7202;50.718;7.072;2023-09-30T06:43:00;5.95;;;4.03;;
14235;SDS011;7202;50.718;7.072;2023-09-30T06:45:28;6.28;;;4.18;;
14235;SDS011;7202;50.718;7.072;2023-09-30T06:47:57;5.68;;;4.30;;
14235;SDS011;7202;50.718;7.072;2023-09-30T06:50:25;4.50;;;3.83;;
14235;SDS011;7202;50.718;7.072;2023-09-30T06:52:54;6.60;;;4.22;;
14235;SDS011;7202;50.718;7.072;2023-09-30T06:55:22;7.10;;;4.22;;
14235;SDS011;7202;50.718;7.072;2023-09-30T06:57:52;4.38;;;3.80;;
14235;SDS011;7202;50.718;7.072;2023-09-30T07:00:22;4.55;;;4.13;;
14235;SDS011;7202;50.718;7.072;2023-09-30T07:02:52;4.88;;;3.83;;
14235;SDS011;7202;50.718;7.072;2023-09-30T07:05:21;7.22;;;4.38;;
14235;SDS011;7202;50.718;7.072;2023-09-30T07:07:50;6.07;;;4.43;;
14235;SDS011;7202;50.718;7.072;2023-09-30T07:10:18;6.72;;;3.97;;
14235;SDS011;7202;50.718;7.072;2023-09-30T07:12:47;6.25;;;4.78;;
14235;SDS011;7202;50.718;7.072;2023-09-30T07:15:16;7.93;;;4.38;;
14235;SDS011;7202;50.718;7.072;2023-09-30T07:17:46;5.15;;;3.80;;
14235;SDS011;7202;50.718;7.072;2023-09-30T07:20:15;7.35;;;4.68;;
14235;SDS011;7202;50.718;7.072;2023-09-30T07:22:44;6.22;;;4.05;;
14235;SDS011;7202;50.718;7.072;2023-09-30T07:25:28;9.93;;;4.68;;
14235;SDS011;7202;50.718;7.072;2023-09-30T07:27:58;8.73;;;4.68;;
14235;SDS011;7202;50.718;7.072;2023-09-30T07:30:27;6.28;;;4.20;;
14235;SDS011;7202;50.718;7.072;2023-09-30T07:32:57;6.70;;;4.63;;
14235;SDS011;7202;50.718;7.072;2023-09-30T07:35:26;6.45;;;5.05;;
14235;SDS011;7202;50.718;7.072;2023-09-30T07:37:54;5.25;;;3.90;;
14235;SDS011;7202;50.718;7.072;2023-09-30T07:40:24;7.35;;;4.65;;
14235;SDS011;7202;50.718;7.072;2023-09-30T07:42:54;5.15;;;3.83;;
14235;SDS011;7202;50.718;7.072;2023-09-30T07:45:24;8.80;;;4.63;;
14235;SDS011;7202;50.718;7.072;2023-09-30T07:47:52;6.13;;;4.85;;
14235;SDS011;7202;50.718;7.072;2023-09-30T07:50:22;9.52;;;4.60;;
14235;SDS011;7202;50.718;7.072;2023-09-30T07:52:51;8.43;;;4.40;;
14235;SDS011;7202;50.718;7.072;2023-09-30T07:55:20;4.80;;;4.28;;
14235;SDS011;7202;50.718;7.072;2023-09-30T07:57:48;7.70;;;4.80;;
14235;SDS011;7202;50.718;7.072;2023-09-30T08:00:17;6.68;;;4.43;;
14235;SDS011;7202;50.718;7.072;2023-09-30T08:02:48;8.68;;;4.80;;
14235;SDS011;7202;50.718;7.072;2023-09-30T08:05:17;7.50;;;4.95;;
14235;SDS011;7202;50.718;7.072;2023-09-30T08:07:47;12.95;;;4.40;;
14235;SDS011;7202;50.718;7.072;2023-09-30T08:10:15;6.50;;;4.22;;
14235;SDS011;7202;50.718;7.072;2023-09-30T08:12:44;6.95;;;4.65;;
14235;SDS011;7202;50.718;7.072;2023-09-30T08:15:15;7.95;;;4.97;;
14235;SDS011;7202;50.718;7.072;2023-09-30T08:17:44;6.95;;;4.15;;
14235;SDS011;7202;50.718;7.072;2023-09-30T08:20:13;6.82;;;4.10;;
14235;SDS011;7202;50.718;7.072;2023-09-30T08:22:42;7.80;;;4.65;;
14235;SDS011;7202;50.718;7.072;2023-09-30T08:25:13;6.75;;;4.38;;
14235;SDS011;7202;50.718;7.072;2023-09-30T08:27:41;6.22;;;4.38;;
14235;SDS011;7202;50.718;7.072;2023-09-30T08:30:12;11.02;;;4.70;;
14235;SDS011;7202;50.718;7.072;2023-09-30T08:32:41;6.40;;;3.78;;
14235;SDS011;7202;50.718;7.072;2023-09-30T08:35:09;7.03;;;4.53;;
14235;SDS011;7202;50.718;7.072;2023-09-30T08:37:39;9.05;;;4.47;;
14235;SDS011;7202;50.718;7.072;2023-09-30T08:40:08;6.18;;;4.28;;
14235;SDS011;7202;50.718;7.072;2023-09-30T08:42:39;8.13;;;4.00;;
14235;SDS011;7202;50.718;7.072;2023-09-30T08:45:09;8.23;;;4.40;;
14235;SDS011;7202;50.718;7.072;2023-09-30T08:47:42;5.10;;;3.60;;
14235;SDS011;7202;50.718;7.072;2023-09-30T08:50:11;5.63;;;4.28;;
14235;SDS011;7202;50.718;7.072;2023-09-30T08:52:41;7.20;;;4.00;;
14235;SDS011;7202;50.718;7.072;2023-09-30T08:55:11;5.65;;;3.92;;
14235;SDS011;7202;50.718;7.072;2023-09-30T08:57:41;8.27;;;3.90;;
14235;SDS011;7202;50.718;7.072;2023-09-30T09:00:11;6.57;;;3.75;;
14235;SDS011;7202;50.718;7.072;2023-09-30T09:02:41;6.57;;;4.63;;
14235;SDS011;7202;50.718;7.072;2023-09-30T09:05:10;10.02;;;5.30;;
14235;SDS011;7202;50.718;7.072;2023-09-30T09:07:39;7.55;;;4.40;;
14235;SDS011;7202;50.718;7.072;2023-09-30T09:10:10;7.68;;;4.47;;
14235;SDS011;7202;50.718;7.072;2023-09-30T09:12:42;7.47;;;5.07;;
14235;SDS011;7202;50.718;7.072;2023-09-30T09:15:23;8.15;;;5.65;;
14235;SDS011;7202;50.718;7.072;2023-09-30T09:17:53;9.30;;;5.50;;
14235;SDS011;7202;50.718;7.072;2023-09-30T09:20:22;6.43;;;4.45;;
14235;SDS011;7202;50.718;7.072;2023-09-30T09:22:53;9.25;;;5.35;;
14235;SDS011;7202;50.718;7.072;2023-09-30T09:25:23;9.32;;;5.53;;
14235;SDS011;7202;50.718;7.072;2023-09-30T09:27:53;8.13;;;4.95;;
14235;SDS011;7202;50.718;7.072;2023-09-30T09:30:23;8.43;;;5.35;;
14235;SDS011;7202;50.718;7.072;2023-09-30T09:33:02;6.95;;;5.13;;
14235;SDS011;7202;50.718;7.072;2023-09-30T09:35:32;8.10;;;4.72;;
14235;SDS011;7202;50.718;7.072;2023-09-30T09:38:02;6.90;;;4.80;;
14235;SDS011;7202;50.718;7.072;2023-09-30T09:40:32;7.78;;;4.35;;
14235;SDS011;7202;50.718;7.072;2023-09-30T09:43:03;5.05;;;3.78;;
14235;SDS011;7202;50.718;7.072;2023-09-30T09:45:34;4.88;;;3.90;;
14235;SDS011;7202;50.718;7.072;2023-09-30T09:48:04;6.80;;;4.28;;
14235;SDS011;7202;50.718;7.072;2023-09-30T09:50:34;5.78;;;3.92;;
14235;SDS011;7202;50.718;7.072;2023-09-30T09:53:05;6.63;;;3.90;;
14235;SDS011;7202;50.718;7.072;2023-09-30T09:55:35;5.80;;;3.40;;
14235;SDS011;7202;50.718;7.072;2023-09-30T09:58:07;6.28;;;3.00;;
14235;SDS011;7202;50.718;7.072;2023-09-30T10:00:37;4.20;;;3.10;;
14235;SDS011;7202;50.718;7.072;2023-09-30T10:03:06;5.43;;;3.10;;
14235;SDS011;7202;50.718;7.072;2023-09-30T10:05:35;4.47;;;3.45;;
14235;SDS011;7202;50.718;7.072;2023-09-30T10:08:07;5.68;;;3.45;;
14235;SDS011;7202;50.718;7.072;2023-09-30T10:10:40;5.18;;;2.80;;
14235;SDS011;7202;50.718;7.072;2023-09-30T10:13:12;4.97;;;3.28;;
14235;SDS011;7202;50.718;7.072;2023-09-30T10:19:19;7.82;;;3.55;;
14235;SDS011;7202;50.718;7.072;2023-09-30T10:24:51;5.68;;;3.00;;
14235;SDS011;7202;50.718;7.072;2023-09-30T10:27:33;4.88;;;2.95;;
14235;SDS011;7202;50.718;7.072;2023-09-30T10:30:09;4.32;;;2.97;;
14235;SDS011;7202;50.718;7.072;2023-09-30T10:35:44;4.15;;;2.72;;
14235;SDS011;7202;50.718;7.072;2023-09-30T10:41:08;3.47;;;2.40;;
14235;SDS011;7202;50.718;7.072;2023-09-30T10:43:39;4.68;;;3.25;;
14235;SDS011;7202;50.718;7.072;2023-09-30T10:52:00;4.40;;;2.80;;
14235;SDS011;7202;50.718;7.072;2023-09-30T10:54:30;4.68;;;2.97;;
14235;SDS011;7202;50.718;7.072;2023-09-30T10:56:59;5.32;;;3.25;;
14235;SDS011;7202;50.718;7.072;2023-09-30T10:59:31;5.95;;;3.15;;
14235;SDS011;7202;50.718;7.072;2023-09-30T11:02:03;4.93;;;3.33;;
14235;SDS011;7202;50.718;7.072;2023-09-30T11:04:45;4.72;;;3.13;;
14235;SDS011;7202;50.718;7.072;2023-09-30T11:07:18;4.28;;;2.92;;
14235;SDS011;7202;50.718;7.072;2023-09-30T11:09:53;4.97;;;2.83;;
14235;SDS011;7202;50.718;7.072;2023-09-30T11:12:22;4.63;;;3.70;;
14235;SDS011;7202;50.718;7.072;2023-09-30T11:14:58;4.95;;;2.95;;
14235;SDS011;7202;50.718;7.072;2023-09-30T11:17:28;4.38;;;2.58;;
14235;SDS011;7202;50.718;7.072;2023-09-30T11:19:57;4.45;;;2.63;;
14235;SDS011;7202;50.718;7.072;2023-09-30T11:22:26;5.68;;;3.20;;
14235;SDS011;7202;50.718;7.072;2023-09-30T11:24:55;4.53;;;2.83;;
14235;SDS011;7202;50.718;7.072;2023-09-30T11:27:23;5.60;;;3.00;;
14235;SDS011;7202;50.718;7.072;2023-09-30T11:29:54;3.47;;;2.50;;
14235;SDS011;7202;50.718;7.072;2023-09-30T11:32:23;4.55;;;2.63;;
14235;SDS011;7202;50.718;7.072;2023-09-30T11:34:55;5.28;;;2.45;;
14235;SDS011;7202;50.718;7.072;2023-09-30T11:37:30;6.07;;;3.03;;
14235;SDS011;7202;50.718;7.072;2023-09-30T11:40:10;5.85;;;2.95;;
14235;SDS011;7202;50.718;7.072;2023-09-30T11:42:40;4.78;;;2.22;;
14235;SDS011;7202;50.718;7.072;2023-09-30T11:45:19;5.05;;;2.53;;
14235;SDS011;7202;50.718;7.072;2023-09-30T11:47:49;4.20;;;2.03;;
14235;SDS011;7202;50.718;7.072;2023-09-30T11:50:20;5.70;;;2.35;;
14235;SDS011;7202;50.718;7.072;2023-09-30T11:52:51;4.13;;;2.25;;
14235;SDS011;7202;50.718;7.072;2023-09-30T11:55:20;4.88;;;2.70;;
14235;SDS011;7202;50.718;7.072;2023-09-30T11:57:48;5.03;;;2.20;;
14235;SDS011;7202;50.718;7.072;2023-09-30T12:00:21;3.90;;;2.08;;
14235;SDS011;7202;50.718;7.072;2023-09-30T12:02:51;3.85;;;2.10;;
14235;SDS011;7202;50.718;7.072;2023-09-30T12:05:21;3.17;;;1.80;;
14235;SDS011;7202;50.718;7.072;2023-09-30T12:07:50;4.03;;;2.38;;
14235;SDS011;7202;50.718;7.072;2023-09-30T12:10:19;3.33;;;2.15;;
14235;SDS011;7202;50.718;7.072;2023-09-30T12:12:47;2.70;;;2.10;;
14235;SDS011;7202;50.718;7.072;2023-09-30T12:15:16;6.10;;;2.22;;
14235;SDS011;7202;50.718;7.072;2023-09-30T12:17:48;4.55;;;2.15;;
14235;SDS011;7202;50.718;7.072;2023-09-30T12:20:17;5.20;;;2.15;;
14235;SDS011;7202;50.718;7.072;2023-09-30T12:22:47;4.05;;;2.20;;
14235;SDS011;7202;50.718;7.072;2023-09-30T12:25:16;4.65;;;2.22;;
14235;SDS011;7202;50.718;7.072;2023-09-30T12:27:48;6.18;;;2.40;;
14235;SDS011;7202;50.718;7.072;2023-09-30T12:30:17;4.80;;;1.88;;
14235;SDS011;7202;50.718;7.072;2023-09-30T12:32:47;2.45;;;1.75;;
14235;SDS011;7202;50.718;7.072;2023-09-30T12:35:15;5.07;;;1.95;;
14235;SDS011;7202;50.718;7.072;2023-09-30T12:37:44;3.88;;;2.15;;
14235;SDS011;7202;50.718;7.072;2023-09-30T12:40:14;5.05;;;2.75;;
14235;SDS011;7202;50.718;7.072;2023-09-30T12:42:43;3.88;;;2.33;;
14235;SDS011;7202;50.718;7.072;2023-09-30T12:45:12;4.10;;;2.75;;
14235;SDS011;7202;50.718;7.072;2023-09-30T12:47:41;3.88;;;1.85;;
14235;SDS011;7202;50.718;7.072;2023-09-30T12:50:09;4.50;;;2.30;;
14235;SDS011;7202;50.718;7.072;2023-09-30T12:52:39;4.72;;;1.90;;
14235;SDS011;7202;50.718;7.072;2023-09-30T12:55:08;5.88;;;2.25;;
14235;SDS011;7202;50.718;7.072;2023-09-30T12:57:38;5.43;;;2.28;;
14235;SDS011;7202;50.718;7.072;2023-09-30T13:00:07;3.70;;;1.98;;
14235;SDS011;7202;50.718;7.072;2023-09-30T13:02:37;3.85;;;2.15;;
14235;SDS011;7202;50.718;7.072;2023-09-30T13:05:06;4.18;;;1.88;;
14235;SDS011;7202;50.718;7.072;2023-09-30T13:07:34;4.32;;;2.42;;
14235;SDS011;7202;50.718;7.072;2023-09-30T13:10:03;3.40;;;2.47;;
14235;SDS011;7202;50.718;7.072;2023-09-30T13:12:34;6.75;;;2.50;;
14235;SDS011;7202;50.718;7.072;2023-09-30T13:15:05;3.15;;;1.85;;
14235;SDS011;7202;50.718;7.072;2023-09-30T13:17:35;2.72;;;1.90;;
14235;SDS011;7202;50.718;7.072;2023-09-30T13:20:04;3.78;;;2.20;;
14235;SDS011;7202;50.718;7.072;2023-09-30T13:22:35;4.25;;;2.13;;
14235;SDS011;7202;50.718;7.072;2023-09-30T13:25:06;3.45;;;2.10;;
14235;SDS011;7202;50.718;7.072;2023-09-30T13:27:38;6.40;;;2.40;;
14235;SDS011;7202;50.718;7.072;2023-09-30T13:30:09;6.07;;;2.17;;
14235;SDS011;7202;50.718;7.072;2023-09-30T13:32:38;5.13;;;2.42;;
14235;SDS011;7202;50.718;7.072;2023-09-30T13:35:07;3.25;;;2.08;;
14235;SDS011;7202;50.718;7.072;2023-09-30T13:37:35;4.30;;;2.17;;
14235;SDS011;7202;50.718;7.072;2023-09-30T13:40:04;4.18;;;2.10;;
14235;SDS011;7202;50.718;7.072;2023-09-30T13:42:35;4.45;;;2.05;;
14235;SDS011;7202;50.718;7.072;2023-09-30T13:45:04;5.50;;;2.58;;
14235;SDS011;7202;50.718;7.072;2023-09-30T13:47:36;5.20;;;2.60;;
14235;SDS011;7202;50.718;7.072;2023-09-30T13:50:05;3.63;;;2.13;;
14235;SDS011;7202;50.718;7.072;2023-09-30T13:52:36;3.40;;;1.88;;
14235;SDS011;7202;50.718;7.072;2023-09-30T13:55:05;4.75;;;1.98;;
14235;SDS011;7202;50.718;7.072;2023-09-30T13:57:35;5.55;;;2.03;;
14235;SDS011;7202;50.718;7.072;2023-09-30T14:00:04;3.97;;;2.20;;
14235;SDS011;7202;50.718;7.072;2023-09-30T14:02:38;4.30;;;1.88;;
14235;SDS011;7202;50.718;7.072;2023-09-30T14:05:07;4.00;;;2.08;;
14235;SDS011;7202;50.718;7.072;2023-09-30T14:07:36;5.20;;;2.35;;
14235;SDS011;7202;50.718;7.072;2023-09-30T14:10:07;5.35;;;1.98;;
14235;SDS011;7202;50.718;7.072;2023-09-30T14:12:38;4.03;;;2.10;;
14235;SDS011;7202;50.718;7.072;2023-09-30T14:15:07;4.55;;;2.35;;
14235;SDS011;7202;50.718;7.072;2023-09-30T14:17:36;4.57;;;2.22;;
14235;SDS011;7202;50.718;7.072;2023-09-30T14:20:07;5.45;;;2.33;;
14235;SDS011;7202;50.718;7.072;2023-09-30T14:22:36;3.85;;;1.92;;
14235;SDS011;7202;50.718;7.072;2023-09-30T14:25:05;3.53;;;2.40;;
14235;SDS011;7202;50.718;7.072;2023-09-30T14:27:34;5.25;;;2.25;;
14235;SDS011;7202;50.718;7.072;2023-09-30T14:30:03;4.32;;;2.17;;
14235;SDS011;7202;50.718;7.072;2023-09-30T14:32:34;5.70;;;2.10;;
14235;SDS011;7202;50.718;7.072;2023-09-30T14:35:06;5.13;;;2.30;;
14235;SDS011;7202;50.718;7.072;2023-09-30T14:37:36;5.70;;;2.80;;
14235;SDS011;7202;50.718;7.072;2023-09-30T14:40:04;4.82;;;2.55;;
14235;SDS011;7202;50.718;7.072;2023-09-30T14:42:37;4.30;;;2.25;;
14235;SDS011;7202;50.718;7.072;2023-09-30T14:45:07;4.35;;;2.22;;
14235;SDS011;7202;50.718;7.072;2023-09-30T14:47:37;4.20;;;2.38;;
14235;SDS011;7202;50.718;7.072;2023-09-30T14:50:09;4.28;;;2.33;;
14235;SDS011;7202;50.718;7.072;2023-09-30T14:52:38;3.42;;;2.22;;
14235;SDS011;7202;50.718;7.072;2023-09-30T14:55:07;5.70;;;2.45;;
14235;SDS011;7202;50.718;7.072;2023-09-30T14:57:36;2.20;;;1.90;;
14235;SDS011;7202;50.718;7.072;2023-09-30T15:00:05;3.67;;;2.08;;
14235;SDS011;7202;50.718;7.072;2023-09-30T15:02:34;6.03;;;2.42;;
14235;SDS011;7202;50.718;7.072;2023-09-30T15:05:05;3.85;;;2.10;;
14235;SDS011;7202;50.718;7.072;2023-09-30T15:07:36;4.40;;;1.95;;
14235;SDS011;7202;50.718;7.072;2023-09-30T15:10:05;4.05;;;2.40;;
14235;SDS011;7202;50.718;7.072;2023-09-30T15:12:35;3.30;;;2.10;;
14235;SDS011;7202;50.718;7.072;2023-09-30T15:15:04;3.83;;;2.10;;
14235;SDS011;7202;50.718;7.072;2023-09-30T15:17:33;5.22;;;2.20;;
14235;SDS011;7202;50.718;7.072;2023-09-30T15:20:02;4.45;;;2.72;;
14235;SDS011;7202;50.718;7.072;2023-09-30T15:22:32;4.75;;;2.47;;
14235;SDS011;7202;50.718;7.072;2023-09-30T15:25:01;3.70;;;2.53;;
14235;SDS011;7202;50.718;7.072;2023-09-30T15:27:31;5.40;;;2.40;;
14235;SDS011;7202;50.718;7.072;2023-09-30T15:29:59;4.50;;;2.30;;
14235;SDS011;7202;50.718;7.072;2023-09-30T15:32:28;5.70;;;2.58;;
14235;SDS011;7202;50.718;7.072;2023-09-30T15:34:57;4.05;;;2.15;;